Avila Beach, California
Current Conditions -  °F | °C
As of 12:56 AM on Sunday 26 Oct 2014 (Local Time) from KSBP Reporting Station
Clear Clear  
Wind Chill: 58°   Ceiling: Unl
Heat Index: 58°   Visibility: 10mi
Dew Point: 52°   Wind: 7mph
Humidity: 81%   Direction: 310°NW
Pressure: 30.09"   Gusts: NA
Location:  35.18°N, 120.73°W
Report Text: KSBP 260756Z 31006KT 10SM CLR 14/11 A3009 RMK AO2 SLP189 T01440111 402390094
Loading
Personal Weather Stations






























Interactive Weather Map
Tropical Storm Tracking
New forecast layout! Learn more

10-Day Weather Forecast

Advertisements
Track Severe Weather on mobile